createdAt,value
2023-01-08T00:00:10.250Z,0.00
2023-01-08T00:01:10.349Z,0.00
2023-01-08T00:02:10.236Z,0.00
2023-01-08T00:03:10.384Z,0.00
2023-01-08T00:04:10.311Z,0.00
2023-01-08T00:05:10.457Z,0.00
2023-01-08T00:06:10.590Z,0.00
2023-01-08T00:07:11.110Z,0.00
2023-01-08T00:08:10.188Z,0.00
2023-01-08T00:09:10.092Z,0.00
2023-01-08T00:10:10.210Z,0.00
2023-01-08T00:11:10.031Z,0.00
2023-01-08T00:12:10.034Z,0.00
2023-01-08T00:13:10.216Z,0.00
2023-01-08T00:14:10.119Z,0.00
2023-01-08T00:15:10.024Z,0.00
2023-01-08T00:16:10.260Z,0.00
2023-01-08T00:17:09.958Z,0.00
2023-01-08T00:18:10.098Z,0.00
2023-01-08T00:19:10.479Z,0.00
2023-01-08T00:20:10.084Z,0.00
2023-01-08T00:21:10.068Z,0.00
2023-01-08T00:22:10.073Z,0.00
2023-01-08T00:23:10.004Z,0.00
2023-01-08T00:24:09.893Z,0.00
2023-01-08T00:25:09.925Z,0.00
2023-01-08T00:26:09.910Z,0.00
2023-01-08T00:27:09.812Z,0.00
2023-01-08T00:28:09.824Z,0.00
2023-01-08T00:29:09.838Z,0.00
2023-01-08T00:30:09.938Z,0.00
2023-01-08T00:31:10.030Z,0.00
2023-01-08T00:32:09.731Z,0.00
2023-01-08T00:33:09.949Z,0.00
2023-01-08T00:34:09.969Z,0.00
2023-01-08T00:35:09.677Z,0.00
2023-01-08T00:36:09.766Z,0.00
2023-01-08T00:37:09.692Z,0.00
2023-01-08T00:38:09.684Z,0.00
2023-01-08T00:39:10.027Z,0.00
2023-01-08T00:40:09.710Z,0.00
2023-01-08T00:41:09.704Z,0.00
2023-01-08T00:42:09.602Z,0.00
2023-01-08T00:43:09.608Z,0.00
2023-01-08T00:44:09.710Z,0.00
2023-01-08T00:45:09.649Z,0.00
2023-01-08T00:46:09.875Z,0.00
2023-01-08T00:47:09.628Z,0.00
2023-01-08T00:48:09.666Z,0.00
2023-01-08T00:49:09.555Z,0.00
2023-01-08T00:50:09.575Z,0.00
2023-01-08T00:51:09.652Z,0.00
2023-01-08T00:52:09.475Z,0.00
2023-01-08T00:53:09.511Z,0.00
2023-01-08T00:54:09.512Z,0.00
2023-01-08T00:55:09.516Z,0.00
2023-01-08T00:56:09.421Z,0.00
2023-01-08T00:57:09.501Z,0.00
2023-01-08T00:58:09.421Z,0.00
2023-01-08T00:59:09.411Z,0.00
2023-01-08T01:00:09.331Z,0.00
2023-01-08T01:01:09.540Z,0.00
2023-01-08T01:02:10.302Z,0.00
2023-01-08T01:03:09.452Z,0.00
2023-01-08T01:04:09.477Z,0.00
2023-01-08T01:05:09.372Z,0.00
2023-01-08T01:06:09.255Z,0.00
2023-01-08T01:07:09.279Z,0.00
2023-01-08T01:08:09.313Z,0.00
2023-01-08T01:09:09.374Z,0.00
2023-01-08T01:10:10.106Z,0.00
2023-01-08T01:11:09.204Z,0.00
2023-01-08T01:12:09.212Z,0.00
2023-01-08T01:13:09.146Z,0.00
2023-01-08T01:14:09.214Z,0.00
2023-01-08T01:15:09.140Z,0.00
2023-01-08T01:16:09.129Z,0.00
2023-01-08T01:17:09.155Z,0.00
2023-01-08T01:18:09.138Z,0.00
2023-01-08T01:19:09.072Z,0.00
2023-01-08T01:20:09.148Z,0.00
2023-01-08T01:21:09.068Z,0.00
2023-01-08T01:22:09.007Z,0.00
2023-01-08T01:23:09.094Z,0.00
2023-01-08T01:24:09.071Z,0.00
2023-01-08T01:25:09.117Z,0.00
2023-01-08T01:26:09.020Z,0.00
2023-01-08T01:27:09.025Z,0.00
2023-01-08T01:28:09.441Z,0.00
2023-01-08T01:29:08.921Z,0.00
2023-01-08T01:30:08.940Z,0.00
2023-01-08T01:31:09.004Z,0.00
2023-01-08T01:32:08.845Z,0.00
2023-01-08T01:33:09.839Z,0.00
2023-01-08T01:34:08.858Z,0.00
2023-01-08T01:35:08.948Z,0.00
2023-01-08T01:36:08.900Z,0.00
2023-01-08T01:37:08.883Z,0.00
2023-01-08T01:38:08.969Z,0.00
2023-01-08T01:39:08.889Z,0.00
2023-01-08T01:40:08.906Z,0.00
2023-01-08T01:41:08.896Z,0.00
2023-01-08T01:42:08.794Z,0.00
2023-01-08T01:43:08.709Z,0.00
2023-01-08T01:44:08.710Z,0.00
2023-01-08T01:45:08.820Z,0.00
2023-01-08T01:46:08.690Z,0.00
2023-01-08T01:47:08.754Z,0.00
2023-01-08T01:48:08.631Z,0.00
2023-01-08T01:49:08.993Z,0.00
2023-01-08T01:50:08.541Z,0.00
2023-01-08T01:51:08.758Z,0.00
2023-01-08T01:52:08.983Z,0.00
2023-01-08T01:53:08.610Z,0.00
2023-01-08T01:54:08.473Z,0.00
2023-01-08T01:55:08.573Z,0.00
2023-01-08T01:56:08.497Z,0.00
2023-01-08T01:57:08.507Z,0.00
2023-01-08T01:58:08.500Z,0.00
2023-01-08T01:59:08.499Z,0.00
2023-01-08T02:00:08.539Z,0.00
2023-01-08T02:01:08.606Z,0.00
2023-01-08T02:02:08.971Z,0.00
2023-01-08T02:03:08.448Z,0.00
2023-01-08T02:04:08.407Z,0.00
2023-01-08T02:05:08.363Z,0.00
2023-01-08T02:06:08.457Z,0.00
2023-01-08T02:07:08.458Z,0.00
2023-01-08T02:08:09.181Z,0.00
2023-01-08T02:09:09.315Z,0.00
2023-01-08T02:10:08.308Z,0.00
2023-01-08T02:11:08.407Z,0.00
2023-01-08T02:12:08.422Z,0.00
2023-01-08T02:13:08.300Z,0.00
2023-01-08T02:14:08.399Z,0.00
2023-01-08T02:15:08.332Z,0.00
2023-01-08T02:16:08.231Z,0.00
2023-01-08T02:17:09.073Z,0.00
2023-01-08T02:18:08.458Z,0.00
2023-01-08T02:19:08.402Z,0.00
2023-01-08T02:20:08.263Z,0.00
2023-01-08T02:21:08.244Z,0.00
2023-01-08T02:22:08.266Z,0.00
2023-01-08T02:23:08.188Z,0.00
2023-01-08T02:24:08.175Z,0.00
2023-01-08T02:25:08.214Z,0.00
2023-01-08T02:26:08.178Z,0.00
2023-01-08T02:27:08.009Z,0.00
2023-01-08T02:28:08.116Z,0.00
2023-01-08T02:29:08.037Z,0.00
2023-01-08T02:30:08.033Z,0.00
2023-01-08T02:31:08.206Z,0.00
2023-01-08T02:32:08.056Z,0.00
2023-01-08T02:33:07.958Z,0.00
2023-01-08T02:34:07.951Z,0.00
2023-01-08T02:35:07.981Z,0.00
2023-01-08T02:36:08.073Z,0.00
2023-01-08T02:37:08.088Z,0.00
2023-01-08T02:38:07.875Z,0.00
2023-01-08T02:39:08.606Z,0.00
2023-01-08T02:40:08.525Z,0.00
2023-01-08T02:41:08.215Z,0.00
2023-01-08T02:42:09.163Z,0.00
2023-01-08T02:43:07.897Z,0.00
2023-01-08T02:44:07.827Z,0.00
2023-01-08T02:45:07.925Z,0.00
2023-01-08T02:46:08.124Z,0.00
2023-01-08T02:47:07.836Z,0.00
2023-01-08T02:48:07.847Z,0.00
2023-01-08T02:49:07.755Z,0.00
2023-01-08T02:50:07.887Z,0.00
2023-01-08T02:51:08.830Z,0.00
2023-01-08T02:52:07.751Z,0.00
2023-01-08T02:53:08.098Z,0.00
2023-01-08T02:54:07.796Z,0.00
2023-01-08T02:55:07.768Z,0.00
2023-01-08T02:56:07.715Z,0.00
2023-01-08T02:57:07.802Z,0.00
2023-01-08T02:58:07.703Z,0.00
2023-01-08T02:59:07.717Z,0.00
2023-01-08T03:00:07.707Z,0.00
2023-01-08T03:01:08.519Z,0.00
2023-01-08T03:02:07.831Z,0.00
2023-01-08T03:03:07.675Z,0.00
2023-01-08T03:04:07.766Z,0.00
2023-01-08T03:05:08.053Z,0.00
2023-01-08T03:06:07.757Z,0.00
2023-01-08T03:07:07.571Z,0.00
2023-01-08T03:08:07.581Z,0.00
2023-01-08T03:09:07.492Z,0.00
2023-01-08T03:10:07.573Z,0.00
2023-01-08T03:11:07.492Z,0.00
2023-01-08T03:12:07.803Z,0.00
2023-01-08T03:13:07.492Z,0.00
2023-01-08T03:14:07.422Z,0.00
2023-01-08T03:15:07.443Z,0.00
2023-01-08T03:16:07.343Z,0.00
2023-01-08T03:17:07.431Z,0.00
2023-01-08T03:18:07.529Z,0.00
2023-01-08T03:19:07.538Z,0.00
2023-01-08T03:20:07.469Z,0.00
2023-01-08T03:21:07.728Z,0.00
2023-01-08T03:22:07.990Z,0.00
2023-01-08T03:23:07.773Z,0.00
2023-01-08T03:24:07.472Z,0.00
2023-01-08T03:25:07.289Z,0.00
2023-01-08T03:26:07.314Z,0.00
2023-01-08T03:27:07.386Z,0.00
2023-01-08T03:28:07.402Z,0.00
2023-01-08T03:29:07.244Z,0.00
2023-01-08T03:30:07.214Z,0.00
2023-01-08T03:31:07.161Z,0.00
2023-01-08T03:32:07.222Z,0.00
2023-01-08T03:33:07.230Z,0.00
2023-01-08T03:34:08.060Z,0.00
2023-01-08T03:35:07.240Z,0.00
2023-01-08T03:36:07.259Z,0.00
2023-01-08T03:37:07.258Z,0.00
2023-01-08T03:38:07.175Z,0.00
2023-01-08T03:39:07.284Z,0.00
2023-01-08T03:40:07.200Z,0.00
2023-01-08T03:41:07.194Z,0.00
2023-01-08T03:42:07.207Z,0.00
2023-01-08T03:43:07.120Z,0.00
2023-01-08T03:44:07.234Z,0.00
2023-01-08T03:45:07.157Z,0.00
2023-01-08T03:46:07.047Z,0.00
2023-01-08T03:47:07.019Z,0.00
2023-01-08T03:48:07.026Z,0.00
2023-01-08T03:49:07.241Z,0.00
2023-01-08T03:50:06.984Z,0.00
2023-01-08T03:51:06.967Z,0.00
2023-01-08T03:52:06.971Z,0.00
2023-01-08T03:53:06.999Z,0.00
2023-01-08T03:54:06.983Z,0.00
2023-01-08T03:55:07.084Z,0.00
2023-01-08T03:56:06.992Z,0.00
2023-01-08T03:57:06.907Z,0.00
2023-01-08T03:58:06.935Z,0.00
2023-01-08T03:59:06.904Z,0.00
2023-01-08T04:00:07.023Z,0.00
2023-01-08T04:01:06.824Z,0.00
2023-01-08T04:02:06.899Z,0.00
2023-01-08T04:03:06.759Z,0.00
2023-01-08T04:04:06.804Z,0.00
2023-01-08T04:05:06.755Z,0.00
2023-01-08T04:06:06.764Z,0.00
2023-01-08T04:07:06.679Z,0.00
2023-01-08T04:08:06.995Z,0.00
2023-01-08T04:09:06.780Z,0.00
2023-01-08T04:10:06.734Z,0.00
2023-01-08T04:11:06.720Z,0.00
2023-01-08T04:12:06.704Z,0.00
2023-01-08T04:13:06.717Z,0.00
2023-01-08T04:14:07.528Z,0.00
2023-01-08T04:15:06.834Z,0.00
2023-01-08T04:16:06.625Z,0.00
2023-01-08T04:17:06.739Z,0.00
2023-01-08T04:18:07.043Z,0.00
2023-01-08T04:19:06.631Z,0.00
2023-01-08T04:20:06.538Z,0.00
2023-01-08T04:21:06.466Z,0.00
2023-01-08T04:22:06.529Z,0.00
2023-01-08T04:23:06.656Z,0.00
2023-01-08T04:24:06.498Z,0.00
2023-01-08T04:25:06.480Z,0.00
2023-01-08T04:26:06.540Z,0.00
2023-01-08T04:27:06.492Z,0.00
2023-01-08T04:28:06.486Z,0.00
2023-01-08T04:29:06.420Z,0.00
2023-01-08T04:30:06.489Z,0.00
2023-01-08T04:31:06.632Z,0.00
2023-01-08T04:32:06.404Z,0.00
2023-01-08T04:33:06.520Z,0.00
2023-01-08T04:34:06.454Z,0.00
2023-01-08T04:35:06.449Z,0.00
2023-01-08T04:36:06.448Z,0.00
2023-01-08T04:37:07.087Z,0.00
2023-01-08T04:38:06.698Z,0.00
2023-01-08T04:39:07.214Z,0.00
2023-01-08T04:40:06.815Z,0.00
2023-01-08T04:41:07.513Z,0.00
2023-01-08T04:42:07.153Z,0.00
2023-01-08T04:43:06.503Z,0.00
2023-01-08T04:44:06.315Z,0.00
2023-01-08T04:45:07.033Z,0.00
2023-01-08T04:46:08.250Z,0.00
2023-01-08T04:47:06.962Z,0.00
2023-01-08T04:48:07.253Z,0.00
2023-01-08T04:49:07.587Z,0.00
2023-01-08T04:50:06.973Z,0.00
2023-01-08T04:51:06.582Z,0.00
2023-01-08T04:52:06.790Z,0.00
2023-01-08T04:53:07.195Z,0.00
2023-01-08T04:54:08.425Z,0.00
2023-01-08T04:55:10.500Z,0.00
2023-01-08T04:56:09.481Z,0.00
2023-01-08T04:57:10.502Z,0.00
2023-01-08T04:58:07.545Z,0.00
2023-01-08T04:59:08.383Z,0.00
2023-01-08T05:00:07.373Z,0.00
2023-01-08T05:01:06.664Z,0.00
2023-01-08T05:02:07.712Z,0.00
2023-01-08T05:03:07.471Z,0.00
2023-01-08T05:04:06.890Z,0.00
2023-01-08T05:05:06.059Z,0.00
2023-01-08T05:06:06.578Z,0.00
2023-01-08T05:07:07.004Z,0.00
2023-01-08T05:08:06.593Z,0.00
2023-01-08T05:09:06.485Z,0.00
2023-01-08T05:10:06.185Z,0.00
2023-01-08T05:11:05.896Z,0.00
2023-01-08T05:12:07.450Z,0.00
2023-01-08T05:13:07.531Z,0.00
2023-01-08T05:14:07.229Z,0.00
2023-01-08T05:15:06.733Z,0.00
2023-01-08T05:16:06.974Z,0.00
2023-01-08T05:17:06.856Z,0.00
2023-01-08T05:18:06.133Z,0.00
2023-01-08T05:19:05.749Z,0.00
2023-01-08T05:20:06.354Z,0.00
2023-01-08T05:21:05.871Z,0.00
2023-01-08T05:22:06.157Z,0.00
2023-01-08T05:23:07.104Z,0.00
2023-01-08T05:24:06.405Z,0.00
2023-01-08T05:25:05.914Z,0.00
2023-01-08T05:26:06.423Z,0.00
2023-01-08T05:27:06.757Z,0.00
2023-01-08T05:28:06.317Z,0.00
2023-01-08T05:29:07.348Z,0.00
2023-01-08T05:30:05.922Z,0.00
2023-01-08T05:31:06.142Z,0.00
2023-01-08T05:32:08.075Z,0.00
2023-01-08T05:33:30.833Z,0.00
2023-01-08T05:34:05.756Z,0.00
2023-01-08T05:35:05.769Z,0.00
2023-01-08T05:36:05.883Z,0.00
2023-01-08T05:37:11.699Z,0.00
2023-01-08T05:38:10.412Z,0.00
2023-01-08T05:39:06.391Z,0.00
2023-01-08T05:40:05.689Z,0.00
2023-01-08T05:41:09.696Z,0.00
2023-01-08T05:42:06.962Z,0.00
2023-01-08T05:43:10.744Z,0.00
2023-01-08T05:44:07.178Z,0.00
2023-01-08T05:45:14.204Z,0.00
2023-01-08T05:46:08.267Z,0.00
2023-01-08T05:47:05.948Z,0.00
2023-01-08T05:48:07.490Z,0.00
2023-01-08T05:49:05.979Z,0.00
2023-01-08T05:50:06.066Z,0.00
2023-01-08T05:51:08.866Z,0.00
2023-01-08T05:52:07.316Z,0.00
2023-01-08T05:53:08.043Z,0.00
2023-01-08T05:54:06.716Z,0.00
2023-01-08T05:55:06.201Z,0.00
2023-01-08T05:56:08.256Z,0.00
2023-01-08T05:57:08.182Z,0.00
2023-01-08T05:58:06.368Z,0.00
2023-01-08T05:59:05.531Z,0.00
2023-01-08T06:00:05.613Z,0.00
2023-01-08T06:01:06.556Z,0.00
2023-01-08T06:02:05.341Z,0.00
2023-01-08T06:03:09.950Z,0.00
2023-01-08T06:04:07.441Z,0.00
2023-01-08T06:05:06.370Z,0.00
2023-01-08T06:06:11.765Z,0.00
2023-01-08T06:07:07.519Z,0.00
2023-01-08T06:08:08.652Z,0.00
2023-01-08T06:09:07.052Z,0.00
2023-01-08T06:10:09.487Z,0.00
2023-01-08T06:11:06.632Z,0.00
2023-01-08T06:12:07.371Z,0.00
2023-01-08T06:13:06.321Z,0.00
2023-01-08T06:14:06.245Z,0.00
2023-01-08T06:15:14.170Z,0.00
2023-01-08T06:16:09.358Z,0.00
2023-01-08T06:17:06.293Z,0.00
2023-01-08T06:18:07.213Z,0.00
2023-01-08T06:19:05.236Z,0.00
2023-01-08T06:20:05.673Z,0.00
2023-01-08T06:21:06.391Z,0.00
2023-01-08T06:22:05.507Z,0.00
2023-01-08T06:23:05.087Z,0.00
2023-01-08T06:24:04.998Z,0.00
2023-01-08T06:25:06.209Z,0.00
2023-01-08T06:26:06.105Z,0.00
2023-01-08T06:27:04.786Z,0.00
2023-01-08T06:28:05.300Z,0.00
2023-01-08T06:29:05.143Z,0.00
2023-01-08T06:30:05.135Z,0.00
2023-01-08T06:31:05.165Z,0.00
2023-01-08T06:32:06.194Z,0.00
2023-01-08T06:33:04.967Z,0.00
2023-01-08T06:34:05.152Z,0.00
2023-01-08T06:35:04.740Z,0.00
2023-01-08T06:36:04.844Z,0.00
2023-01-08T06:37:06.734Z,0.00
2023-01-08T06:38:05.397Z,0.00
2023-01-08T06:39:06.937Z,0.00
2023-01-08T06:40:05.624Z,0.00
2023-01-08T06:41:09.718Z,0.00
2023-01-08T06:42:06.349Z,0.00
2023-01-08T06:43:07.581Z,0.00
2023-01-08T06:44:09.921Z,0.00
2023-01-08T06:45:17.759Z,0.00
2023-01-08T06:46:09.815Z,0.00
2023-01-08T06:47:06.674Z,0.00
2023-01-08T06:48:05.205Z,0.00
2023-01-08T06:49:05.993Z,0.00
2023-01-08T06:50:06.083Z,0.00
2023-01-08T06:51:06.827Z,0.00
2023-01-08T06:52:04.504Z,0.00
2023-01-08T06:53:04.375Z,0.00
2023-01-08T06:54:04.479Z,0.00
2023-01-08T06:55:04.720Z,0.00
2023-01-08T06:56:04.322Z,0.00
2023-01-08T06:57:04.291Z,0.00
2023-01-08T06:58:04.324Z,0.00
2023-01-08T06:59:04.305Z,0.00
2023-01-08T07:00:04.515Z,0.00
2023-01-08T07:01:04.435Z,0.00
2023-01-08T07:02:04.483Z,0.00
2023-01-08T07:03:04.627Z,0.00
2023-01-08T07:04:04.262Z,0.00
2023-01-08T07:05:04.257Z,0.00
2023-01-08T07:06:04.343Z,0.00
2023-01-08T07:07:04.289Z,0.00
2023-01-08T07:08:04.280Z,0.00
2023-01-08T07:09:04.175Z,0.00
2023-01-08T07:10:04.785Z,0.00
2023-01-08T07:11:04.193Z,0.00
2023-01-08T07:12:04.090Z,0.00
2023-01-08T07:13:04.226Z,0.00
2023-01-08T07:14:04.517Z,0.00
2023-01-08T07:15:04.201Z,0.00
2023-01-08T07:16:04.143Z,0.00
2023-01-08T07:17:04.047Z,0.00
2023-01-08T07:18:04.751Z,0.00
2023-01-08T07:19:04.062Z,0.00
2023-01-08T07:20:04.029Z,0.00
2023-01-08T07:21:04.060Z,0.00
2023-01-08T07:22:03.962Z,0.00
2023-01-08T07:23:04.157Z,0.00
2023-01-08T07:24:03.971Z,0.00
2023-01-08T07:25:03.974Z,0.00
2023-01-08T07:26:03.997Z,5.62
2023-01-08T07:27:03.901Z,5.62
2023-01-08T07:28:03.924Z,5.62
2023-01-08T07:29:03.926Z,5.62
2023-01-08T07:30:03.910Z,5.62
2023-01-08T07:31:04.128Z,5.62
2023-01-08T07:32:03.846Z,5.62
2023-01-08T07:33:04.030Z,5.62
2023-01-08T07:34:03.991Z,5.62
2023-01-08T07:35:03.866Z,5.62
2023-01-08T07:36:03.844Z,5.62
2023-01-08T07:37:03.890Z,5.62
2023-01-08T07:38:03.959Z,5.62
2023-01-08T07:39:03.780Z,11.25
2023-01-08T07:40:03.808Z,11.25
2023-01-08T07:41:03.973Z,11.25
2023-01-08T07:42:03.815Z,11.25
2023-01-08T07:43:03.906Z,11.25
2023-01-08T07:44:03.800Z,16.88
2023-01-08T07:45:03.813Z,16.88
2023-01-08T07:46:03.718Z,16.88
2023-01-08T07:47:04.044Z,22.50
2023-01-08T07:48:04.429Z,22.50
2023-01-08T07:49:03.832Z,22.50
2023-01-08T07:50:03.660Z,22.50
2023-01-08T07:51:03.841Z,22.50
2023-01-08T07:52:03.603Z,22.50
2023-01-08T07:53:04.071Z,22.50
2023-01-08T07:54:03.781Z,28.12
2023-01-08T07:55:03.692Z,28.12
2023-01-08T07:56:03.669Z,28.12
2023-01-08T07:57:04.103Z,28.12
2023-01-08T07:58:03.592Z,33.75
2023-01-08T07:59:03.600Z,33.75
2023-01-08T08:00:03.526Z,39.38
2023-01-08T08:01:03.517Z,39.38
2023-01-08T08:02:03.870Z,39.38
2023-01-08T08:03:03.657Z,39.38
2023-01-08T08:04:03.625Z,39.38
2023-01-08T08:05:03.457Z,39.38
2023-01-08T08:06:03.449Z,39.38
2023-01-08T08:07:03.650Z,39.38
2023-01-08T08:08:03.379Z,39.38
2023-01-08T08:09:03.688Z,39.38
2023-01-08T08:10:03.481Z,39.38
2023-01-08T08:11:03.470Z,39.38
2023-01-08T08:12:03.501Z,39.38
2023-01-08T08:13:03.300Z,39.38
2023-01-08T08:14:03.390Z,39.38
2023-01-08T08:15:03.431Z,45.00
2023-01-08T08:16:03.367Z,45.00
2023-01-08T08:17:03.418Z,39.38
2023-01-08T08:18:03.322Z,39.38
2023-01-08T08:19:03.351Z,39.38
2023-01-08T08:20:03.364Z,39.38
2023-01-08T08:21:03.263Z,39.38
2023-01-08T08:22:03.274Z,33.75
2023-01-08T08:23:03.298Z,28.12
2023-01-08T08:24:03.377Z,28.12
2023-01-08T08:25:03.299Z,22.50
2023-01-08T08:26:03.295Z,22.50
2023-01-08T08:27:03.300Z,16.88
2023-01-08T08:28:03.219Z,16.88
2023-01-08T08:29:03.102Z,22.50
2023-01-08T08:30:03.241Z,28.12
2023-01-08T08:31:03.189Z,33.75
2023-01-08T08:32:04.052Z,39.38
2023-01-08T08:33:03.256Z,39.38
2023-01-08T08:34:03.123Z,45.00
2023-01-08T08:35:03.242Z,45.00
2023-01-08T08:36:03.057Z,45.00
2023-01-08T08:37:03.865Z,50.62
2023-01-08T08:38:03.106Z,61.88
2023-01-08T08:39:02.979Z,61.88
2023-01-08T08:40:03.062Z,61.88
2023-01-08T08:41:03.005Z,61.88
2023-01-08T08:42:02.982Z,73.12
2023-01-08T08:43:03.097Z,84.38
2023-01-08T08:44:02.923Z,90.00
2023-01-08T08:45:03.002Z,95.62
2023-01-08T08:46:02.944Z,95.62
2023-01-08T08:47:02.959Z,95.62
2023-01-08T08:48:03.020Z,90.00
2023-01-08T08:49:02.962Z,90.00
2023-01-08T08:50:02.852Z,84.38
2023-01-08T08:51:03.053Z,90.00
2023-01-08T08:52:02.857Z,90.00
2023-01-08T08:53:02.849Z,95.62
2023-01-08T08:54:02.877Z,95.62
2023-01-08T08:55:02.871Z,95.62
2023-01-08T08:56:02.864Z,101.25
2023-01-08T08:57:02.888Z,106.88
2023-01-08T08:58:05.112Z,106.88
2023-01-08T08:59:02.806Z,112.50
2023-01-08T09:00:02.811Z,112.50
2023-01-08T09:01:02.936Z,106.88
2023-01-08T09:02:02.760Z,106.88
2023-01-08T09:03:02.764Z,106.88
2023-01-08T09:04:02.865Z,101.25
2023-01-08T09:05:02.740Z,101.25
2023-01-08T09:06:02.672Z,95.62
2023-01-08T09:07:02.764Z,95.62
2023-01-08T09:08:02.752Z,95.62
2023-01-08T09:09:02.591Z,95.62
2023-01-08T09:10:02.671Z,106.88
2023-01-08T09:11:02.689Z,112.50
2023-01-08T09:12:02.623Z,112.50
2023-01-08T09:13:03.444Z,118.12
2023-01-08T09:14:02.683Z,118.12
2023-01-08T09:15:02.538Z,112.50
2023-01-08T09:16:02.638Z,112.50
2023-01-08T09:17:02.548Z,112.50
2023-01-08T09:18:02.531Z,118.12
2023-01-08T09:19:02.433Z,129.38
2023-01-08T09:20:02.459Z,146.25
2023-01-08T09:21:02.451Z,157.50
2023-01-08T09:22:02.549Z,163.12
2023-01-08T09:23:02.383Z,168.75
2023-01-08T09:24:02.396Z,174.38
2023-01-08T09:25:02.400Z,174.38
2023-01-08T09:26:02.495Z,174.38
2023-01-08T09:27:02.309Z,168.75
2023-01-08T09:28:02.305Z,163.12
2023-01-08T09:29:02.404Z,151.88
2023-01-08T09:30:02.422Z,146.25
2023-01-08T09:31:02.232Z,140.62
2023-01-08T09:32:02.446Z,146.25
2023-01-08T09:33:03.367Z,146.25
2023-01-08T09:34:02.324Z,146.25
2023-01-08T09:35:03.276Z,146.25
2023-01-08T09:36:02.244Z,146.25
2023-01-08T09:37:02.155Z,151.88
2023-01-08T09:38:02.338Z,168.75
2023-01-08T09:39:02.279Z,180.00
2023-01-08T09:40:03.281Z,191.25
2023-01-08T09:41:02.091Z,191.25
2023-01-08T09:42:02.306Z,196.88
2023-01-08T09:43:02.104Z,202.50
2023-01-08T09:44:02.293Z,208.12
2023-01-08T09:45:02.321Z,213.75
2023-01-08T09:46:02.110Z,213.75
2023-01-08T09:47:02.124Z,213.75
2023-01-08T09:48:02.188Z,202.50
2023-01-08T09:49:02.144Z,191.25
2023-01-08T09:50:02.139Z,180.00
2023-01-08T09:51:01.955Z,168.75
2023-01-08T09:52:02.052Z,157.50
2023-01-08T09:53:01.985Z,146.25
2023-01-08T09:54:01.988Z,135.00
2023-01-08T09:55:02.468Z,123.75
2023-01-08T09:56:09.677Z,123.75
2023-01-08T09:57:03.015Z,129.38
2023-01-08T09:58:03.385Z,140.62
2023-01-08T09:59:01.903Z,146.25
2023-01-08T10:00:01.992Z,151.88
2023-01-08T10:01:02.085Z,157.50
2023-01-08T10:02:01.994Z,163.12
2023-01-08T10:03:01.995Z,157.50
2023-01-08T10:04:01.845Z,140.62
2023-01-08T10:05:01.833Z,129.38
2023-01-08T10:06:01.861Z,129.38
2023-01-08T10:07:01.866Z,123.75
2023-01-08T10:08:01.841Z,118.12
2023-01-08T10:09:01.804Z,118.12
2023-01-08T10:10:01.865Z,123.75
2023-01-08T10:11:01.874Z,140.62
2023-01-08T10:12:01.687Z,151.88
2023-01-08T10:13:02.130Z,146.25
2023-01-08T10:14:01.841Z,140.62
2023-01-08T10:15:01.688Z,151.88
2023-01-08T10:16:01.802Z,174.38
2023-01-08T10:17:01.719Z,191.25
2023-01-08T10:18:01.829Z,196.88
2023-01-08T10:19:01.830Z,208.12
2023-01-08T10:20:01.639Z,213.75
2023-01-08T10:21:01.763Z,213.75
2023-01-08T10:22:01.768Z,219.38
2023-01-08T10:23:01.853Z,225.00
2023-01-08T10:24:01.773Z,230.62
2023-01-08T10:25:01.593Z,225.00
2023-01-08T10:26:01.672Z,219.38
2023-01-08T10:27:01.582Z,202.50
2023-01-08T10:28:01.594Z,180.00
2023-01-08T10:29:01.790Z,163.12
2023-01-08T10:30:01.508Z,140.62
2023-01-08T10:31:01.573Z,118.12
2023-01-08T10:32:01.422Z,112.50
2023-01-08T10:33:01.434Z,118.12
2023-01-08T10:34:01.536Z,123.75
2023-01-08T10:35:01.357Z,123.75
2023-01-08T10:36:01.446Z,118.12
2023-01-08T10:37:01.355Z,112.50
2023-01-08T10:38:01.471Z,101.25
2023-01-08T10:39:01.380Z,95.62
2023-01-08T10:40:01.283Z,101.25
2023-01-08T10:41:01.362Z,123.75
2023-01-08T10:42:01.402Z,129.38
2023-01-08T10:43:01.283Z,129.38
2023-01-08T10:44:01.384Z,129.38
2023-01-08T10:45:01.388Z,123.75
2023-01-08T10:46:01.370Z,123.75
2023-01-08T10:47:01.452Z,129.38
2023-01-08T10:48:01.325Z,135.00
2023-01-08T10:49:01.333Z,151.88
2023-01-08T10:50:01.174Z,180.00
2023-01-08T10:51:01.260Z,202.50
2023-01-08T10:52:01.272Z,225.00
2023-01-08T10:53:01.183Z,264.38
2023-01-08T10:54:01.283Z,258.75
2023-01-08T10:55:01.255Z,253.12
2023-01-08T10:56:01.200Z,236.25
2023-01-08T10:57:02.567Z,253.12
2023-01-08T10:58:01.105Z,309.38
2023-01-08T10:59:01.092Z,365.62
2023-01-08T11:00:01.197Z,382.50
2023-01-08T11:01:01.146Z,376.88
2023-01-08T11:02:01.292Z,292.50
2023-01-08T11:03:01.027Z,230.62
2023-01-08T11:04:01.027Z,208.12
2023-01-08T11:05:01.038Z,213.75
2023-01-08T11:06:00.963Z,219.38
2023-01-08T11:07:01.441Z,230.62
2023-01-08T11:08:00.981Z,253.12
2023-01-08T11:09:00.974Z,270.00
2023-01-08T11:10:00.980Z,309.38
2023-01-08T11:11:00.994Z,393.75
2023-01-08T11:12:01.003Z,438.75
2023-01-08T11:13:01.005Z,371.25
2023-01-08T11:14:00.904Z,326.25
2023-01-08T11:15:01.913Z,360.00
2023-01-08T11:16:00.978Z,331.88
2023-01-08T11:17:00.916Z,326.25
2023-01-08T11:18:00.979Z,405.00
2023-01-08T11:19:00.835Z,416.25
2023-01-08T11:20:00.747Z,298.12
2023-01-08T11:21:00.941Z,270.00
2023-01-08T11:22:00.856Z,264.38
2023-01-08T11:23:00.789Z,247.50
2023-01-08T11:24:00.681Z,281.25
2023-01-08T11:25:00.779Z,286.88
2023-01-08T11:26:00.864Z,270.00
2023-01-08T11:27:00.801Z,253.12
2023-01-08T11:28:00.792Z,236.25
2023-01-08T11:29:00.700Z,230.62
2023-01-08T11:30:00.721Z,236.25
2023-01-08T11:31:01.155Z,286.88
2023-01-08T11:32:00.624Z,365.62
2023-01-08T11:33:00.743Z,382.50
2023-01-08T11:34:00.529Z,354.38
2023-01-08T11:35:00.541Z,348.75
2023-01-08T11:36:00.560Z,343.12
2023-01-08T11:37:00.760Z,371.25
2023-01-08T11:38:00.576Z,365.62
2023-01-08T11:39:00.571Z,331.88
2023-01-08T11:40:00.578Z,315.00
2023-01-08T11:41:00.664Z,286.88
2023-01-08T11:42:00.392Z,298.12
2023-01-08T11:43:00.581Z,326.25
2023-01-08T11:44:00.601Z,354.38
2023-01-08T11:45:00.409Z,376.88
2023-01-08T11:46:00.472Z,405.00
2023-01-08T11:47:01.439Z,427.50
2023-01-08T11:48:00.323Z,438.75
2023-01-08T11:49:00.555Z,416.25
2023-01-08T11:50:00.425Z,371.25
2023-01-08T11:51:00.434Z,331.88
2023-01-08T11:52:00.261Z,286.88
2023-01-08T11:53:00.370Z,253.12
2023-01-08T11:54:00.391Z,230.62
2023-01-08T11:55:02.164Z,225.00
2023-01-08T11:56:00.307Z,236.25
2023-01-08T11:57:00.282Z,258.75
2023-01-08T11:58:00.195Z,281.25
2023-01-08T11:59:02.236Z,315.00
2023-01-08T12:00:00.198Z,348.75
2023-01-08T12:01:00.189Z,371.25
2023-01-08T12:02:00.262Z,405.00
2023-01-08T12:03:00.194Z,438.75
2023-01-08T12:04:00.216Z,455.62
2023-01-08T12:05:00.083Z,466.88
2023-01-08T12:06:00.125Z,466.88
2023-01-08T12:07:00.095Z,450.00
2023-01-08T12:08:00.077Z,393.75
2023-01-08T12:09:01.005Z,348.75
2023-01-08T12:10:00.096Z,331.88
2023-01-08T12:11:00.059Z,348.75
2023-01-08T12:12:00.184Z,365.62
2023-01-08T12:13:01.193Z,365.62
2023-01-08T12:14:00.495Z,365.62
2023-01-08T12:15:00.012Z,371.25
2023-01-08T12:15:59.913Z,393.75
2023-01-08T12:17:00.270Z,410.62
2023-01-08T12:17:59.916Z,405.00
2023-01-08T12:19:00.241Z,388.12
2023-01-08T12:19:59.955Z,343.12
2023-01-08T12:20:59.959Z,298.12
2023-01-08T12:22:00.034Z,270.00
2023-01-08T12:22:59.949Z,258.75
2023-01-08T12:23:59.943Z,286.88
2023-01-08T12:25:00.369Z,298.12
2023-01-08T12:25:59.773Z,309.38
2023-01-08T12:26:59.865Z,281.25
2023-01-08T12:28:00.208Z,241.88
2023-01-08T12:28:59.796Z,230.62
2023-01-08T12:29:59.894Z,236.25
2023-01-08T12:30:59.823Z,241.88
2023-01-08T12:32:05.664Z,292.50
2023-01-08T12:33:00.850Z,303.75
2023-01-08T12:33:59.715Z,253.12
2023-01-08T12:34:59.832Z,230.62
2023-01-08T12:35:59.757Z,236.25
2023-01-08T12:36:59.748Z,230.62
2023-01-08T12:37:59.640Z,225.00
2023-01-08T12:38:59.653Z,236.25
2023-01-08T12:39:59.666Z,253.12
2023-01-08T12:40:59.800Z,241.88
2023-01-08T12:41:59.691Z,241.88
2023-01-08T12:43:01.922Z,298.12
2023-01-08T12:43:59.605Z,360.00
2023-01-08T12:44:59.593Z,371.25
2023-01-08T12:46:00.597Z,478.12
2023-01-08T12:46:59.619Z,528.75
2023-01-08T12:47:59.712Z,450.00
2023-01-08T12:48:59.617Z,337.50
2023-01-08T12:49:59.537Z,275.62
2023-01-08T12:50:59.566Z,247.50
2023-01-08T12:52:00.106Z,230.62
2023-01-08T12:53:00.372Z,225.00
2023-01-08T12:53:59.666Z,225.00
2023-01-08T12:54:59.566Z,225.00
2023-01-08T12:55:59.586Z,225.00
2023-01-08T12:56:59.502Z,230.62
2023-01-08T12:57:59.472Z,230.62
2023-01-08T12:58:59.518Z,225.00